createdAt,value
2022-10-14T00:03:16.071Z,34.70
2022-10-14T00:08:16.793Z,37.00
2022-10-14T00:13:17.500Z,36.80
2022-10-14T00:18:18.317Z,35.40
2022-10-14T00:23:19.059Z,34.90
2022-10-14T00:28:19.912Z,34.10
2022-10-14T00:33:20.744Z,35.10
2022-10-14T00:38:21.525Z,35.30
2022-10-14T00:43:22.293Z,37.20
2022-10-14T00:48:23.063Z,40.50
2022-10-14T00:53:23.897Z,39.20
2022-10-14T00:58:24.670Z,40.60
2022-10-14T01:03:25.410Z,36.10
2022-10-14T01:08:26.141Z,36.30
2022-10-14T01:13:26.937Z,35.10
2022-10-14T01:18:27.727Z,35.10
2022-10-14T01:23:28.509Z,36.40
2022-10-14T01:28:30.009Z,35.90
2022-10-14T01:33:29.925Z,35.30
2022-10-14T01:38:30.636Z,34.00
2022-10-14T01:43:31.414Z,32.80
2022-10-14T01:48:32.109Z,34.60
2022-10-14T01:53:32.853Z,30.30
2022-10-14T01:58:33.622Z,32.80
2022-10-14T02:03:34.372Z,28.80
2022-10-14T02:08:35.208Z,31.80
2022-10-14T02:13:35.899Z,32.20
2022-10-14T02:18:36.759Z,32.40
2022-10-14T02:23:37.569Z,33.20
2022-10-14T02:28:38.553Z,29.30
2022-10-14T02:33:39.253Z,30.20
2022-10-14T02:38:39.987Z,33.50
2022-10-14T02:43:40.777Z,33.70
2022-10-14T02:48:41.486Z,32.50
2022-10-14T02:53:42.259Z,33.60
2022-10-14T02:58:42.950Z,30.60
2022-10-14T03:03:43.703Z,31.50
2022-10-14T03:08:44.485Z,30.00
2022-10-14T03:13:45.198Z,30.50
2022-10-14T03:18:45.968Z,31.40
2022-10-14T03:23:46.716Z,27.90
2022-10-14T03:28:47.511Z,28.60
2022-10-14T03:33:48.239Z,30.50
2022-10-14T03:38:48.990Z,27.30
2022-10-14T03:43:49.708Z,30.10
2022-10-14T03:48:50.451Z,28.30
2022-10-14T03:53:51.260Z,28.60
2022-10-14T03:58:51.964Z,29.00
2022-10-14T04:03:52.739Z,31.20
2022-10-14T04:08:53.476Z,31.50
2022-10-14T04:14:01.194Z,30.00
2022-10-14T04:18:54.940Z,36.00
2022-10-14T04:23:55.649Z,30.30
2022-10-14T04:28:56.419Z,31.50
2022-10-14T04:33:57.142Z,31.70
2022-10-14T04:38:57.861Z,30.50
2022-10-14T04:43:58.586Z,31.20
2022-10-14T04:48:59.328Z,32.50
2022-10-14T04:54:00.084Z,30.30
2022-10-14T04:59:00.756Z,33.00
2022-10-14T05:04:01.445Z,31.40
2022-10-14T05:09:02.102Z,32.90
2022-10-14T05:14:02.750Z,33.50
2022-10-14T05:19:03.463Z,32.40
2022-10-14T05:24:04.143Z,32.80
2022-10-14T05:29:04.803Z,30.00
2022-10-14T05:34:05.494Z,32.90
2022-10-14T05:39:06.167Z,33.30
2022-10-14T05:44:06.837Z,31.80
2022-10-14T05:49:07.512Z,29.40
2022-10-14T05:54:08.171Z,31.40
2022-10-14T05:59:08.866Z,34.70
2022-10-14T06:04:09.588Z,30.90
2022-10-14T06:09:11.565Z,31.30
2022-10-14T06:14:10.811Z,32.30
2022-10-14T06:19:11.503Z,48.70
2022-10-14T06:24:12.322Z,30.40
2022-10-14T06:29:12.939Z,30.40
2022-10-14T06:34:13.613Z,34.30
2022-10-14T06:39:14.285Z,33.80
2022-10-14T06:44:14.946Z,32.90
2022-10-14T06:49:15.607Z,34.00
2022-10-14T06:54:16.290Z,33.00
2022-10-14T06:59:16.947Z,33.80
2022-10-14T07:04:17.620Z,37.40
2022-10-14T07:09:18.303Z,31.00
2022-10-14T07:14:18.970Z,34.10
2022-10-14T07:19:19.611Z,31.80
2022-10-14T07:24:20.307Z,40.20
2022-10-14T07:29:20.986Z,36.40
2022-10-14T07:34:21.648Z,31.90
2022-10-14T07:39:22.320Z,34.30
2022-10-14T07:44:26.466Z,37.40
2022-10-14T07:49:23.527Z,33.80
2022-10-14T07:54:24.236Z,33.60
2022-10-14T07:59:24.915Z,33.20
2022-10-14T08:04:25.565Z,28.90
2022-10-14T08:14:26.866Z,32.10
2022-10-14T08:19:27.504Z,29.30
2022-10-14T08:24:28.200Z,34.10
2022-10-14T08:29:28.909Z,31.80
2022-10-14T08:34:29.569Z,33.40
2022-10-14T08:39:30.260Z,32.80
2022-10-14T08:44:30.936Z,33.30
2022-10-14T08:49:31.604Z,31.90
2022-10-14T08:54:32.289Z,31.00
2022-10-14T08:59:32.956Z,30.00
2022-10-14T09:04:33.633Z,28.70
2022-10-14T09:09:34.326Z,30.50
2022-10-14T09:14:34.979Z,27.40
2022-10-14T09:19:35.671Z,30.30
2022-10-14T09:24:36.310Z,32.00
2022-10-14T09:29:37.009Z,30.20
2022-10-14T09:34:37.681Z,32.00
2022-10-14T09:39:38.331Z,25.80
2022-10-14T09:44:39.035Z,26.70
2022-10-14T09:49:39.700Z,31.30
2022-10-14T09:54:40.379Z,24.60
2022-10-14T09:59:41.076Z,27.30
2022-10-14T10:04:41.748Z,26.70
2022-10-14T10:09:42.383Z,29.90
2022-10-14T10:14:50.099Z,26.00
2022-10-14T10:19:43.848Z,24.50
2022-10-14T10:24:44.524Z,25.10
2022-10-14T10:29:45.156Z,27.30
2022-10-14T10:34:45.877Z,28.90
2022-10-14T10:39:46.559Z,29.90
2022-10-14T10:44:47.264Z,30.70
2022-10-14T10:49:47.984Z,28.90
2022-10-14T10:54:48.646Z,25.60
2022-10-14T10:59:49.350Z,27.90
2022-10-14T11:04:50.030Z,30.20
2022-10-14T11:09:50.723Z,27.30
2022-10-14T11:14:51.400Z,33.30
2022-10-14T11:19:52.137Z,26.60
2022-10-14T11:24:52.869Z,22.20
2022-10-14T11:29:53.500Z,22.70
2022-10-14T11:34:54.250Z,23.40
2022-10-14T11:39:55.104Z,24.80
2022-10-14T11:44:55.854Z,23.60
2022-10-14T11:49:56.470Z,23.30
2022-10-14T11:54:57.281Z,28.00
2022-10-14T11:59:58.032Z,23.30
2022-10-14T12:04:58.665Z,24.60
2022-10-14T12:10:00.078Z,26.60
2022-10-14T12:15:00.033Z,24.30
2022-10-14T12:20:00.649Z,23.60
2022-10-14T12:25:01.451Z,19.50
2022-10-14T12:30:02.140Z,20.90
2022-10-14T12:35:02.954Z,19.90
2022-10-14T12:40:03.740Z,22.80
2022-10-14T12:45:04.364Z,19.90
2022-10-14T12:50:05.034Z,21.90
2022-10-14T12:55:05.743Z,20.30
2022-10-14T13:00:06.503Z,22.20
2022-10-14T13:05:07.173Z,20.00
2022-10-14T13:10:07.862Z,21.60
2022-10-14T13:15:08.541Z,23.00
2022-10-14T13:20:09.202Z,18.10
2022-10-14T13:25:09.882Z,18.50
2022-10-14T13:30:10.697Z,18.70
2022-10-14T13:35:12.075Z,17.60
2022-10-14T13:40:12.472Z,15.50
2022-10-14T13:45:13.241Z,15.00
2022-10-14T13:50:13.908Z,14.80
2022-10-14T13:55:14.720Z,13.90
2022-10-14T14:05:17.018Z,14.80
2022-10-14T14:10:16.648Z,14.00
2022-10-14T14:15:17.434Z,13.70
2022-10-14T14:20:18.209Z,15.00
2022-10-14T14:25:35.683Z,15.10
2022-10-14T14:30:20.950Z,12.40
2022-10-14T14:35:22.821Z,13.40
2022-10-14T14:40:20.756Z,14.10
2022-10-14T14:45:21.468Z,13.90
2022-10-14T14:50:30.878Z,11.30
2022-10-14T14:55:23.627Z,13.30
2022-10-14T15:00:23.310Z,13.30
2022-10-14T15:05:24.307Z,14.50
2022-10-14T15:10:24.975Z,14.60
2022-10-14T15:15:25.706Z,12.90
2022-10-14T15:20:26.402Z,13.30
2022-10-14T15:25:27.056Z,14.50
2022-10-14T15:30:27.736Z,14.30
2022-10-14T15:35:28.460Z,13.50
2022-10-14T15:40:29.174Z,18.00
2022-10-14T15:45:29.990Z,19.40
2022-10-14T15:50:30.687Z,20.40
2022-10-14T15:55:31.390Z,15.60
2022-10-14T16:00:32.104Z,16.30
2022-10-14T16:05:32.920Z,17.70
2022-10-14T16:10:34.480Z,16.10
2022-10-14T16:15:41.177Z,17.40
2022-10-14T16:20:34.826Z,18.50
2022-10-14T16:25:35.537Z,18.70
2022-10-14T16:30:36.186Z,16.90
2022-10-14T16:35:36.840Z,18.70
2022-10-14T16:40:37.515Z,16.40
2022-10-14T16:45:38.212Z,25.60
2022-10-14T16:50:39.004Z,21.40
2022-10-14T16:55:39.756Z,20.90
2022-10-14T17:00:40.507Z,17.00
2022-10-14T17:05:41.229Z,18.20
2022-10-14T17:10:42.016Z,16.00
2022-10-14T17:15:42.743Z,17.20
2022-10-14T17:20:43.475Z,19.40
2022-10-14T17:25:44.198Z,17.10
2022-10-14T17:30:44.899Z,17.50
2022-10-14T17:35:45.671Z,18.30
2022-10-14T17:40:46.431Z,17.90
2022-10-14T17:45:47.151Z,15.90
2022-10-14T17:50:47.850Z,17.40
2022-10-14T17:55:50.695Z,15.90
2022-10-14T18:00:49.517Z,16.00
2022-10-14T18:05:50.508Z,18.30
2022-10-14T18:10:50.825Z,19.40
2022-10-14T18:15:51.498Z,18.00
2022-10-14T18:20:52.289Z,19.80
2022-10-14T18:25:53.108Z,19.60
2022-10-14T18:30:53.955Z,18.70
2022-10-14T18:35:54.740Z,17.00
2022-10-14T18:40:55.547Z,18.10
2022-10-14T18:45:56.301Z,18.00
2022-10-14T18:50:57.144Z,16.60
2022-10-14T18:55:59.500Z,16.70
2022-10-14T19:00:58.869Z,17.50
2022-10-14T19:05:59.580Z,15.80
2022-10-14T19:11:00.309Z,16.00
2022-10-14T19:16:01.014Z,15.70
2022-10-14T19:21:01.758Z,15.60
2022-10-14T19:26:02.466Z,16.70
2022-10-14T19:31:03.235Z,15.50
2022-10-14T19:36:03.987Z,15.60
2022-10-14T19:41:04.820Z,16.10
2022-10-14T19:46:05.474Z,17.20
2022-10-14T19:51:07.168Z,15.60
2022-10-14T19:56:07.064Z,18.90
2022-10-14T20:01:07.842Z,15.30
2022-10-14T20:06:08.679Z,18.50
2022-10-14T20:11:09.406Z,18.00
2022-10-14T20:16:10.165Z,15.40
2022-10-14T20:21:10.883Z,16.40
2022-10-14T20:26:11.651Z,15.80
2022-10-14T20:31:12.408Z,17.50
2022-10-14T20:36:13.090Z,17.30
2022-10-14T20:41:13.874Z,19.90
2022-10-14T20:46:14.555Z,19.20
2022-10-14T20:51:15.270Z,17.60
2022-10-14T20:56:16.115Z,17.60
2022-10-14T21:01:17.059Z,16.20
2022-10-14T21:06:17.412Z,17.90
2022-10-14T21:11:18.250Z,19.00
2022-10-14T21:16:19.068Z,21.20
2022-10-14T21:21:19.858Z,20.60
2022-10-14T21:26:20.633Z,22.40
2022-10-14T21:31:21.624Z,23.90
2022-10-14T21:36:22.170Z,23.20
2022-10-14T21:41:22.444Z,24.20
2022-10-14T21:46:23.325Z,23.90
2022-10-14T21:51:24.169Z,24.80
2022-10-14T21:56:25.022Z,24.10
2022-10-14T22:01:25.801Z,24.50
2022-10-14T22:06:26.629Z,27.50
2022-10-14T22:11:27.516Z,26.20
2022-10-14T22:16:28.365Z,28.50
2022-10-14T22:21:29.227Z,29.50
2022-10-14T22:26:30.199Z,26.60
2022-10-14T22:31:30.539Z,29.10
2022-10-14T22:36:31.371Z,29.30
2022-10-14T22:41:35.419Z,28.90
2022-10-14T22:46:32.669Z,27.20
2022-10-14T22:51:33.395Z,29.00
2022-10-14T22:56:34.068Z,25.70
2022-10-14T23:01:34.997Z,29.50
2022-10-14T23:06:35.823Z,27.30
2022-10-14T23:11:36.548Z,28.70
2022-10-14T23:16:44.302Z,27.10
2022-10-14T23:21:38.147Z,26.90
2022-10-14T23:26:38.898Z,27.60
2022-10-14T23:31:39.670Z,27.00
2022-10-14T23:36:40.624Z,28.40
2022-10-14T23:41:41.046Z,28.20
2022-10-14T23:46:41.758Z,28.00
2022-10-14T23:51:42.627Z,27.10
2022-10-14T23:56:43.393Z,27.20
